sensor_id;sensor_type;location;lat;lon;timestamp;pressure;altitude;pressure_sealevel;temperature;humidity
48790;BME280;41718;51.980;5.734;2023-03-15T00:03:47;101069.34;;;0.44;100.00
48790;BME280;41718;51.980;5.734;2023-03-15T00:08:48;101067.88;;;0.47;100.00
48790;BME280;41718;51.980;5.734;2023-03-15T00:13:52;101066.75;;;0.57;100.00
48790;BME280;41718;51.980;5.734;2023-03-15T00:18:54;101066.09;;;0.61;100.00
48790;BME280;41718;51.980;5.734;2023-03-15T00:23:55;101073.75;;;0.61;100.00
48790;BME280;41718;51.980;5.734;2023-03-15T00:28:57;101073.34;;;0.68;100.00
48790;BME280;41718;51.980;5.734;2023-03-15T00:33:59;101069.28;;;0.72;100.00
48790;BME280;41718;51.980;5.734;2023-03-15T00:39:00;101068.94;;;0.66;100.00
48790;BME280;41718;51.980;5.734;2023-03-15T00:44:02;101068.75;;;0.77;100.00
48790;BME280;41718;51.980;5.734;2023-03-15T00:49:04;101079.66;;;0.75;100.00
48790;BME280;41718;51.980;5.734;2023-03-15T00:54:05;101078.94;;;0.77;100.00
48790;BME280;41718;51.980;5.734;2023-03-15T00:59:07;101071.75;;;0.85;100.00
48790;BME280;41718;51.980;5.734;2023-03-15T01:04:11;101067.34;;;0.83;100.00
48790;BME280;41718;51.980;5.734;2023-03-15T01:09:13;101082.97;;;0.89;100.00
48790;BME280;41718;51.980;5.734;2023-03-15T01:14:15;101098.25;;;0.89;100.00
48790;BME280;41718;51.980;5.734;2023-03-15T01:19:16;101104.94;;;0.87;100.00
48790;BME280;41718;51.980;5.734;2023-03-15T01:24:18;101108.97;;;0.83;100.00
48790;BME280;41718;51.980;5.734;2023-03-15T01:29:19;101109.88;;;0.98;100.00
48790;BME280;41718;51.980;5.734;2023-03-15T01:34:21;101118.19;;;0.96;100.00
48790;BME280;41718;51.980;5.734;2023-03-15T01:39:22;101126.63;;;0.95;100.00
48790;BME280;41718;51.980;5.734;2023-03-15T01:45:02;101127.50;;;0.95;100.00
48790;BME280;41718;51.980;5.734;2023-03-15T01:50:07;101134.00;;;0.90;100.00
48790;BME280;41718;51.980;5.734;2023-03-15T01:55:14;101141.38;;;0.86;100.00
48790;BME280;41718;51.980;5.734;2023-03-15T02:00:18;101144.81;;;0.86;100.00
48790;BME280;41718;51.980;5.734;2023-03-15T02:05:23;101142.59;;;0.77;100.00
48790;BME280;41718;51.980;5.734;2023-03-15T02:10:43;101139.25;;;0.78;100.00
48790;BME280;41718;51.980;5.734;2023-03-15T02:15:47;101141.56;;;0.74;100.00
48790;BME280;41718;51.980;5.734;2023-03-15T02:21:07;101137.22;;;0.73;100.00
48790;BME280;41718;51.980;5.734;2023-03-15T02:31:40;101147.75;;;0.64;100.00
48790;BME280;41718;51.980;5.734;2023-03-15T02:36:42;101154.69;;;0.67;100.00
48790;BME280;41718;51.980;5.734;2023-03-15T02:41:47;101164.78;;;0.65;100.00
48790;BME280;41718;51.980;5.734;2023-03-15T02:46:51;101169.69;;;0.62;100.00
48790;BME280;41718;51.980;5.734;2023-03-15T02:51:55;101171.25;;;0.60;100.00
48790;BME280;41718;51.980;5.734;2023-03-15T02:56:56;101173.00;;;0.61;100.00
48790;BME280;41718;51.980;5.734;2023-03-15T03:01:58;101189.66;;;0.56;100.00
48790;BME280;41718;51.980;5.734;2023-03-15T03:06:59;101187.91;;;0.55;100.00
48790;BME280;41718;51.980;5.734;2023-03-15T03:12:01;101198.91;;;0.54;100.00
48790;BME280;41718;51.980;5.734;2023-03-15T03:17:03;101206.63;;;0.56;100.00
48790;BME280;41718;51.980;5.734;2023-03-15T03:22:05;101214.06;;;0.52;100.00
48790;BME280;41718;51.980;5.734;2023-03-15T03:27:06;101225.34;;;0.43;100.00
48790;BME280;41718;51.980;5.734;2023-03-15T03:32:08;101227.91;;;0.43;100.00
48790;BME280;41718;51.980;5.734;2023-03-15T03:37:10;101234.94;;;0.34;100.00
48790;BME280;41718;51.980;5.734;2023-03-15T03:42:11;101242.69;;;0.35;100.00
48790;BME280;41718;51.980;5.734;2023-03-15T03:47:14;101258.25;;;0.26;100.00
48790;BME280;41718;51.980;5.734;2023-03-15T03:52:15;101261.69;;;0.27;100.00
48790;BME280;41718;51.980;5.734;2023-03-15T03:57:17;101270.59;;;0.20;100.00
48790;BME280;41718;51.980;5.734;2023-03-15T04:02:18;101284.09;;;0.19;100.00
48790;BME280;41718;51.980;5.734;2023-03-15T04:07:20;101281.56;;;0.19;100.00
48790;BME280;41718;51.980;5.734;2023-03-15T04:12:22;101300.53;;;0.11;100.00
48790;BME280;41718;51.980;5.734;2023-03-15T04:17:23;101288.09;;;0.16;100.00
48790;BME280;41718;51.980;5.734;2023-03-15T04:22:25;101277.25;;;0.05;100.00
48790;BME280;41718;51.980;5.734;2023-03-15T04:27:28;101298.28;;;0.03;100.00
48790;BME280;41718;51.980;5.734;2023-03-15T04:32:29;101310.22;;;0.04;100.00
48790;BME280;41718;51.980;5.734;2023-03-15T04:37:31;101312.19;;;-0.06;100.00
48790;BME280;41718;51.980;5.734;2023-03-15T04:42:32;101323.41;;;-0.02;100.00
48790;BME280;41718;51.980;5.734;2023-03-15T04:47:34;101340.91;;;-0.07;100.00
48790;BME280;41718;51.980;5.734;2023-03-15T04:52:36;101337.41;;;-0.09;100.00
48790;BME280;41718;51.980;5.734;2023-03-15T04:57:37;101334.38;;;-0.16;100.00
48790;BME280;41718;51.980;5.734;2023-03-15T05:02:39;101348.44;;;-0.21;100.00
48790;BME280;41718;51.980;5.734;2023-03-15T05:07:42;101342.22;;;-0.38;100.00
48790;BME280;41718;51.980;5.734;2023-03-15T05:12:43;101360.41;;;-0.45;100.00
48790;BME280;41718;51.980;5.734;2023-03-15T05:17:45;101363.59;;;-0.48;100.00
48790;BME280;41718;51.980;5.734;2023-03-15T05:22:47;101375.47;;;-0.60;100.00
48790;BME280;41718;51.980;5.734;2023-03-15T05:27:49;101381.63;;;-0.82;100.00
48790;BME280;41718;51.980;5.734;2023-03-15T05:32:53;101392.88;;;-0.78;100.00
48790;BME280;41718;51.980;5.734;2023-03-15T05:37:55;101395.75;;;-0.73;100.00
48790;BME280;41718;51.980;5.734;2023-03-15T05:42:56;101403.84;;;-0.91;100.00
48790;BME280;41718;51.980;5.734;2023-03-15T05:47:58;101408.25;;;-0.88;100.00
48790;BME280;41718;51.980;5.734;2023-03-15T05:53:02;101403.22;;;-1.00;100.00
48790;BME280;41718;51.980;5.734;2023-03-15T05:58:04;101422.84;;;-1.09;100.00
48790;BME280;41718;51.980;5.734;2023-03-15T06:03:06;101431.31;;;-0.97;100.00
48790;BME280;41718;51.980;5.734;2023-03-15T06:08:08;101440.28;;;-1.14;100.00
48790;BME280;41718;51.980;5.734;2023-03-15T06:13:10;101449.38;;;-1.17;100.00
48790;BME280;41718;51.980;5.734;2023-03-15T06:18:11;101454.66;;;-1.14;100.00
48790;BME280;41718;51.980;5.734;2023-03-15T06:23:14;101470.00;;;-1.24;100.00
48790;BME280;41718;51.980;5.734;2023-03-15T06:28:15;101482.69;;;-1.24;100.00
48790;BME280;41718;51.980;5.734;2023-03-15T06:33:18;101484.34;;;-1.13;100.00
48790;BME280;41718;51.980;5.734;2023-03-15T06:38:20;101482.25;;;-1.07;100.00
48790;BME280;41718;51.980;5.734;2023-03-15T06:43:21;101492.84;;;-1.01;100.00
48790;BME280;41718;51.980;5.734;2023-03-15T06:48:25;101500.34;;;-0.91;100.00
48790;BME280;41718;51.980;5.734;2023-03-15T06:53:34;101501.09;;;-0.92;100.00
48790;BME280;41718;51.980;5.734;2023-03-15T06:58:35;101515.66;;;-0.77;100.00
48790;BME280;41718;51.980;5.734;2023-03-15T07:03:38;101525.94;;;-0.76;100.00
48790;BME280;41718;51.980;5.734;2023-03-15T07:08:39;101532.56;;;-0.66;100.00
48790;BME280;41718;51.980;5.734;2023-03-15T07:13:41;101549.47;;;-0.67;100.00
48790;BME280;41718;51.980;5.734;2023-03-15T07:18:42;101544.97;;;-0.46;100.00
48790;BME280;41718;51.980;5.734;2023-03-15T07:23:44;101548.94;;;-0.26;100.00
48790;BME280;41718;51.980;5.734;2023-03-15T07:28:46;101563.47;;;-0.12;100.00
48790;BME280;41718;51.980;5.734;2023-03-15T07:33:47;101567.94;;;0.04;100.00
48790;BME280;41718;51.980;5.734;2023-03-15T07:38:50;101564.69;;;0.18;100.00
48790;BME280;41718;51.980;5.734;2023-03-15T07:43:52;101579.38;;;0.22;100.00
48790;BME280;41718;51.980;5.734;2023-03-15T07:48:53;101587.69;;;0.45;100.00
48790;BME280;41718;51.980;5.734;2023-03-15T07:53:57;101587.19;;;0.50;100.00
48790;BME280;41718;51.980;5.734;2023-03-15T07:58:59;101593.16;;;0.76;100.00
48790;BME280;41718;51.980;5.734;2023-03-15T08:04:00;101603.66;;;0.81;100.00
48790;BME280;41718;51.980;5.734;2023-03-15T08:09:02;101611.72;;;1.00;100.00
48790;BME280;41718;51.980;5.734;2023-03-15T08:14:05;101624.19;;;1.22;100.00
48790;BME280;41718;51.980;5.734;2023-03-15T08:19:07;101630.97;;;1.48;100.00
48790;BME280;41718;51.980;5.734;2023-03-15T08:24:13;101632.34;;;1.43;100.00
48790;BME280;41718;51.980;5.734;2023-03-15T08:29:14;101630.00;;;1.59;100.00
48790;BME280;41718;51.980;5.734;2023-03-15T08:34:16;101633.38;;;1.86;100.00
48790;BME280;41718;51.980;5.734;2023-03-15T08:39:17;101651.84;;;1.82;100.00
48790;BME280;41718;51.980;5.734;2023-03-15T08:44:19;101657.88;;;2.10;100.00
48790;BME280;41718;51.980;5.734;2023-03-15T08:49:20;101681.88;;;2.27;100.00
48790;BME280;41718;51.980;5.734;2023-03-15T08:54:22;101683.88;;;2.18;100.00
48790;BME280;41718;51.980;5.734;2023-03-15T08:59:24;101690.69;;;2.32;100.00
48790;BME280;41718;51.980;5.734;2023-03-15T09:04:32;101691.78;;;2.36;100.00
48790;BME280;41718;51.980;5.734;2023-03-15T09:09:34;101696.34;;;2.98;100.00
48790;BME280;41718;51.980;5.734;2023-03-15T09:14:51;101707.00;;;2.90;100.00
48790;BME280;41718;51.980;5.734;2023-03-15T09:19:52;101713.50;;;2.85;100.00
48790;BME280;41718;51.980;5.734;2023-03-15T09:24:54;101698.94;;;3.12;100.00
48790;BME280;41718;51.980;5.734;2023-03-15T09:29:56;101709.88;;;3.25;100.00
48790;BME280;41718;51.980;5.734;2023-03-15T09:34:57;101717.06;;;3.17;100.00
48790;BME280;41718;51.980;5.734;2023-03-15T09:39:59;101716.28;;;3.62;100.00
48790;BME280;41718;51.980;5.734;2023-03-15T09:45:12;101726.34;;;3.59;100.00
48790;BME280;41718;51.980;5.734;2023-03-15T09:50:28;101731.91;;;3.82;100.00
48790;BME280;41718;51.980;5.734;2023-03-15T09:55:31;101740.28;;;3.79;100.00
48790;BME280;41718;51.980;5.734;2023-03-15T10:05:41;101755.34;;;4.35;100.00
48790;BME280;41718;51.980;5.734;2023-03-15T10:10:59;101751.81;;;4.33;100.00
48790;BME280;41718;51.980;5.734;2023-03-15T10:16:27;101745.59;;;4.44;100.00
48790;BME280;41718;51.980;5.734;2023-03-15T10:21:37;101726.56;;;4.56;100.00
48790;BME280;41718;51.980;5.734;2023-03-15T10:26:42;101718.66;;;5.00;100.00
48790;BME280;41718;51.980;5.734;2023-03-15T10:31:49;101712.13;;;5.23;100.00
48790;BME280;41718;51.980;5.734;2023-03-15T10:36:53;101699.50;;;5.62;100.00
48790;BME280;41718;51.980;5.734;2023-03-15T10:41:55;101685.25;;;6.22;100.00
48790;BME280;41718;51.980;5.734;2023-03-15T10:47:03;101688.66;;;6.40;100.00
48790;BME280;41718;51.980;5.734;2023-03-15T10:52:39;101675.19;;;6.26;100.00
48790;BME280;41718;51.980;5.734;2023-03-15T10:57:57;101688.13;;;5.56;100.00
48790;BME280;41718;51.980;5.734;2023-03-15T11:03:03;101687.16;;;6.45;100.00
48790;BME280;41718;51.980;5.734;2023-03-15T11:08:13;101689.41;;;6.96;100.00
48790;BME280;41718;51.980;5.734;2023-03-15T11:13:23;101694.34;;;6.91;100.00
48790;BME280;41718;51.980;5.734;2023-03-15T11:18:32;101689.78;;;7.45;100.00
48790;BME280;41718;51.980;5.734;2023-03-15T11:23:37;101700.66;;;7.81;100.00
48790;BME280;41718;51.980;5.734;2023-03-15T11:28:43;101698.81;;;8.67;100.00
48790;BME280;41718;51.980;5.734;2023-03-15T11:34:11;101709.69;;;7.49;100.00
48790;BME280;41718;51.980;5.734;2023-03-15T11:39:22;101688.63;;;8.25;100.00
48790;BME280;41718;51.980;5.734;2023-03-15T11:44:36;101693.19;;;8.32;100.00
48790;BME280;41718;51.980;5.734;2023-03-15T11:54:43;101681.09;;;8.52;100.00
48790;BME280;41718;51.980;5.734;2023-03-15T11:59:46;101679.91;;;8.21;100.00
48790;BME280;41718;51.980;5.734;2023-03-15T12:04:49;101674.06;;;8.48;100.00
48790;BME280;41718;51.980;5.734;2023-03-15T12:15:04;101684.63;;;7.88;100.00
48790;BME280;41718;51.980;5.734;2023-03-15T12:25:15;101686.19;;;8.06;100.00
48790;BME280;41718;51.980;5.734;2023-03-15T12:30:31;101687.44;;;7.72;100.00
48790;BME280;41718;51.980;5.734;2023-03-15T12:35:39;101688.13;;;7.89;100.00
48790;BME280;41718;51.980;5.734;2023-03-15T12:41:04;101693.78;;;8.03;100.00
48790;BME280;41718;51.980;5.734;2023-03-15T12:46:06;101677.31;;;7.99;100.00
48790;BME280;41718;51.980;5.734;2023-03-15T12:51:10;101683.91;;;8.13;100.00
48790;BME280;41718;51.980;5.734;2023-03-15T13:01:19;101685.78;;;7.95;100.00
48790;BME280;41718;51.980;5.734;2023-03-15T13:06:36;101686.47;;;7.91;100.00
48790;BME280;41718;51.980;5.734;2023-03-15T13:23:01;101686.84;;;7.79;100.00
48790;BME280;41718;51.980;5.734;2023-03-15T13:28:26;101682.53;;;7.57;100.00
48790;BME280;41718;51.980;5.734;2023-03-15T13:33:30;101676.97;;;7.90;100.00
48790;BME280;41718;51.980;5.734;2023-03-15T13:38:43;101673.06;;;7.77;100.00
48790;BME280;41718;51.980;5.734;2023-03-15T13:43:46;101690.75;;;7.69;100.00
48790;BME280;41718;51.980;5.734;2023-03-15T13:48:50;101690.50;;;7.22;100.00
48790;BME280;41718;51.980;5.734;2023-03-15T13:53:56;101686.56;;;7.72;100.00
48790;BME280;41718;51.980;5.734;2023-03-15T13:59:02;101692.06;;;7.81;100.00
48790;BME280;41718;51.980;5.734;2023-03-15T14:04:07;101694.78;;;7.63;100.00
48790;BME280;41718;51.980;5.734;2023-03-15T14:09:18;101695.59;;;7.83;100.00
48790;BME280;41718;51.980;5.734;2023-03-15T14:14:21;101697.34;;;7.42;100.00
48790;BME280;41718;51.980;5.734;2023-03-15T14:19:27;101703.47;;;7.44;100.00
48790;BME280;41718;51.980;5.734;2023-03-15T14:24:34;101702.69;;;7.47;100.00
48790;BME280;41718;51.980;5.734;2023-03-15T14:29:50;101707.75;;;7.43;100.00
48790;BME280;41718;51.980;5.734;2023-03-15T14:35:03;101702.97;;;7.32;100.00
48790;BME280;41718;51.980;5.734;2023-03-15T14:40:28;101717.00;;;7.40;100.00
48790;BME280;41718;51.980;5.734;2023-03-15T14:45:31;101705.34;;;7.27;100.00
48790;BME280;41718;51.980;5.734;2023-03-15T14:50:41;101705.38;;;7.29;100.00
48790;BME280;41718;51.980;5.734;2023-03-15T14:55:44;101708.09;;;7.32;100.00
48790;BME280;41718;51.980;5.734;2023-03-15T15:00:48;101712.25;;;7.09;100.00
48790;BME280;41718;51.980;5.734;2023-03-15T15:05:50;101705.69;;;7.36;100.00
48790;BME280;41718;51.980;5.734;2023-03-15T15:10:55;101702.63;;;7.45;100.00
48790;BME280;41718;51.980;5.734;2023-03-15T15:15:57;101696.97;;;7.12;100.00
48790;BME280;41718;51.980;5.734;2023-03-15T15:21:10;101684.53;;;7.23;100.00
48790;BME280;41718;51.980;5.734;2023-03-15T15:26:18;101686.88;;;7.16;100.00
48790;BME280;41718;51.980;5.734;2023-03-15T15:31:22;101685.13;;;7.15;100.00
48790;BME280;41718;51.980;5.734;2023-03-15T15:36:27;101681.47;;;7.10;100.00
48790;BME280;41718;51.980;5.734;2023-03-15T15:41:32;101678.88;;;7.10;100.00
48790;BME280;41718;51.980;5.734;2023-03-15T15:46:33;101669.28;;;7.06;100.00
48790;BME280;41718;51.980;5.734;2023-03-15T15:51:47;101668.66;;;7.12;100.00
48790;BME280;41718;51.980;5.734;2023-03-15T15:56:55;101651.22;;;7.05;100.00
48790;BME280;41718;51.980;5.734;2023-03-15T16:01:57;101665.25;;;6.92;100.00
48790;BME280;41718;51.980;5.734;2023-03-15T16:07:02;101651.00;;;7.00;100.00
48790;BME280;41718;51.980;5.734;2023-03-15T16:12:15;101664.81;;;7.02;100.00
48790;BME280;41718;51.980;5.734;2023-03-15T16:17:19;101656.41;;;7.06;100.00
48790;BME280;41718;51.980;5.734;2023-03-15T16:22:24;101660.84;;;6.89;100.00
48790;BME280;41718;51.980;5.734;2023-03-15T16:27:27;101663.66;;;6.96;100.00
48790;BME280;41718;51.980;5.734;2023-03-15T16:32:29;101663.97;;;6.82;100.00
48790;BME280;41718;51.980;5.734;2023-03-15T16:37:44;101668.97;;;6.79;100.00
48790;BME280;41718;51.980;5.734;2023-03-15T16:42:47;101674.00;;;6.76;100.00
48790;BME280;41718;51.980;5.734;2023-03-15T16:47:50;101681.56;;;6.54;100.00
48790;BME280;41718;51.980;5.734;2023-03-15T16:52:54;101678.19;;;6.35;100.00
48790;BME280;41718;51.980;5.734;2023-03-15T16:57:58;101685.13;;;6.38;100.00
48790;BME280;41718;51.980;5.734;2023-03-15T17:03:01;101691.91;;;6.36;100.00
48790;BME280;41718;51.980;5.734;2023-03-15T17:08:03;101695.06;;;6.30;100.00
48790;BME280;41718;51.980;5.734;2023-03-15T17:13:05;101700.09;;;6.09;100.00
48790;BME280;41718;51.980;5.734;2023-03-15T17:18:18;101701.69;;;5.90;100.00
48790;BME280;41718;51.980;5.734;2023-03-15T17:23:20;101703.25;;;5.86;100.00
48790;BME280;41718;51.980;5.734;2023-03-15T17:28:22;101708.22;;;5.83;100.00
48790;BME280;41718;51.980;5.734;2023-03-15T17:33:24;101703.38;;;5.71;100.00
48790;BME280;41718;51.980;5.734;2023-03-15T17:38:28;101696.03;;;5.61;100.00
48790;BME280;41718;51.980;5.734;2023-03-15T17:43:33;101710.19;;;5.53;100.00
48790;BME280;41718;51.980;5.734;2023-03-15T17:48:37;101713.59;;;5.36;100.00
48790;BME280;41718;51.980;5.734;2023-03-15T17:53:38;101707.72;;;5.04;100.00
48790;BME280;41718;51.980;5.734;2023-03-15T17:58:45;101716.47;;;4.91;100.00
48790;BME280;41718;51.980;5.734;2023-03-15T18:03:48;101729.94;;;4.71;100.00
48790;BME280;41718;51.980;5.734;2023-03-15T18:08:50;101728.47;;;4.92;100.00
48790;BME280;41718;51.980;5.734;2023-03-15T18:13:51;101737.06;;;4.93;100.00
48790;BME280;41718;51.980;5.734;2023-03-15T18:18:53;101739.44;;;4.57;100.00
48790;BME280;41718;51.980;5.734;2023-03-15T18:23:55;101745.09;;;4.35;100.00
48790;BME280;41718;51.980;5.734;2023-03-15T18:28:56;101752.09;;;4.38;100.00
48790;BME280;41718;51.980;5.734;2023-03-15T18:33:57;101747.06;;;4.24;100.00
48790;BME280;41718;51.980;5.734;2023-03-15T18:38:59;101751.47;;;3.96;100.00
48790;BME280;41718;51.980;5.734;2023-03-15T18:44:00;101752.91;;;3.76;100.00
48790;BME280;41718;51.980;5.734;2023-03-15T18:49:02;101758.38;;;3.67;100.00
48790;BME280;41718;51.980;5.734;2023-03-15T18:54:05;101746.81;;;3.74;100.00
48790;BME280;41718;51.980;5.734;2023-03-15T18:59:06;101746.44;;;3.83;100.00
48790;BME280;41718;51.980;5.734;2023-03-15T19:04:08;101753.03;;;4.09;100.00
48790;BME280;41718;51.980;5.734;2023-03-15T19:09:10;101752.66;;;4.03;100.00
48790;BME280;41718;51.980;5.734;2023-03-15T19:14:11;101743.28;;;3.87;100.00
48790;BME280;41718;51.980;5.734;2023-03-15T19:19:12;101733.72;;;3.84;100.00
48790;BME280;41718;51.980;5.734;2023-03-15T19:24:14;101731.97;;;3.98;100.00
48790;BME280;41718;51.980;5.734;2023-03-15T19:29:16;101730.50;;;3.72;100.00
48790;BME280;41718;51.980;5.734;2023-03-15T19:34:17;101724.31;;;3.83;100.00
48790;BME280;41718;51.980;5.734;2023-03-15T19:39:24;101736.81;;;3.79;100.00
48790;BME280;41718;51.980;5.734;2023-03-15T19:44:31;101747.63;;;3.58;100.00
48790;BME280;41718;51.980;5.734;2023-03-15T19:49:36;101743.47;;;3.31;100.00
48790;BME280;41718;51.980;5.734;2023-03-15T19:54:46;101747.50;;;3.27;100.00
48790;BME280;41718;51.980;5.734;2023-03-15T19:59:48;101748.50;;;3.29;100.00
48790;BME280;41718;51.980;5.734;2023-03-15T20:04:57;101728.91;;;3.59;100.00
48790;BME280;41718;51.980;5.734;2023-03-15T20:10:02;101738.16;;;3.87;100.00
48790;BME280;41718;51.980;5.734;2023-03-15T20:15:15;101733.50;;;3.65;100.00
48790;BME280;41718;51.980;5.734;2023-03-15T20:20:18;101737.41;;;3.58;100.00
48790;BME280;41718;51.980;5.734;2023-03-15T20:25:22;101726.00;;;3.53;100.00
48790;BME280;41718;51.980;5.734;2023-03-15T20:30:30;101739.75;;;3.55;100.00
48790;BME280;41718;51.980;5.734;2023-03-15T20:35:34;101739.66;;;3.39;100.00
48790;BME280;41718;51.980;5.734;2023-03-15T20:40:37;101741.44;;;3.25;100.00
48790;BME280;41718;51.980;5.734;2023-03-15T20:45:44;101745.41;;;3.50;100.00
48790;BME280;41718;51.980;5.734;2023-03-15T20:50:49;101746.03;;;3.31;100.00
48790;BME280;41718;51.980;5.734;2023-03-15T20:55:52;101730.13;;;3.51;100.00
48790;BME280;41718;51.980;5.734;2023-03-15T21:01:08;101735.53;;;3.41;100.00
48790;BME280;41718;51.980;5.734;2023-03-15T21:06:10;101740.72;;;3.28;100.00
48790;BME280;41718;51.980;5.734;2023-03-15T21:11:12;101737.72;;;3.20;100.00
48790;BME280;41718;51.980;5.734;2023-03-15T21:16:14;101734.81;;;3.29;100.00
48790;BME280;41718;51.980;5.734;2023-03-15T21:21:20;101732.34;;;3.45;100.00
48790;BME280;41718;51.980;5.734;2023-03-15T21:26:22;101729.88;;;3.32;100.00
48790;BME280;41718;51.980;5.734;2023-03-15T21:31:27;101723.63;;;3.41;100.00
48790;BME280;41718;51.980;5.734;2023-03-15T21:36:29;101720.09;;;3.54;100.00
48790;BME280;41718;51.980;5.734;2023-03-15T21:41:30;101703.16;;;3.56;100.00
48790;BME280;41718;51.980;5.734;2023-03-15T21:46:35;101698.63;;;3.82;100.00
48790;BME280;41718;51.980;5.734;2023-03-15T21:51:37;101692.91;;;3.86;100.00
48790;BME280;41718;51.980;5.734;2023-03-15T21:56:40;101692.09;;;3.87;100.00
48790;BME280;41718;51.980;5.734;2023-03-15T22:01:42;101680.13;;;4.02;100.00
48790;BME280;41718;51.980;5.734;2023-03-15T22:06:43;101689.63;;;3.73;100.00
48790;BME280;41718;51.980;5.734;2023-03-15T22:11:46;101690.81;;;3.95;100.00
48790;BME280;41718;51.980;5.734;2023-03-15T22:16:50;101680.56;;;3.64;100.00
48790;BME280;41718;51.980;5.734;2023-03-15T22:21:52;101678.09;;;3.80;100.00
48790;BME280;41718;51.980;5.734;2023-03-15T22:26:54;101677.97;;;3.79;100.00
48790;BME280;41718;51.980;5.734;2023-03-15T22:31:56;101685.84;;;3.67;100.00
48790;BME280;41718;51.980;5.734;2023-03-15T22:37:02;101672.31;;;3.84;100.00
48790;BME280;41718;51.980;5.734;2023-03-15T22:42:06;101678.63;;;3.75;100.00
48790;BME280;41718;51.980;5.734;2023-03-15T22:47:08;101676.50;;;3.67;100.00
48790;BME280;41718;51.980;5.734;2023-03-15T22:52:11;101673.53;;;3.60;100.00
48790;BME280;41718;51.980;5.734;2023-03-15T22:57:15;101669.63;;;3.52;100.00
48790;BME280;41718;51.980;5.734;2023-03-15T23:02:17;101674.47;;;3.62;100.00
48790;BME280;41718;51.980;5.734;2023-03-15T23:07:20;101667.97;;;3.52;100.00
48790;BME280;41718;51.980;5.734;2023-03-15T23:12:21;101674.59;;;3.49;100.00
48790;BME280;41718;51.980;5.734;2023-03-15T23:17:35;101681.81;;;3.56;100.00
48790;BME280;41718;51.980;5.734;2023-03-15T23:22:38;101676.00;;;3.43;100.00
48790;BME280;41718;51.980;5.734;2023-03-15T23:27:40;101675.88;;;3.57;100.00
48790;BME280;41718;51.980;5.734;2023-03-15T23:32:43;101666.03;;;3.48;100.00
48790;BME280;41718;51.980;5.734;2023-03-15T23:37:45;101657.56;;;3.49;100.00
48790;BME280;41718;51.980;5.734;2023-03-15T23:42:46;101650.78;;;3.50;100.00
48790;BME280;41718;51.980;5.734;2023-03-15T23:47:48;101650.31;;;3.57;100.00
48790;BME280;41718;51.980;5.734;2023-03-15T23:52:53;101649.81;;;3.48;100.00
48790;BME280;41718;51.980;5.734;2023-03-15T23:57:55;101632.41;;;3.57;100.00
